Hercules J — 5BDG4 — position and weather

sailwx.info

Track history (hours):
 
Tides and Currents Weather Stations Pressure Air Temp Water Temp Dewpoint Dewpoint Depression Visibility Wind Speed Wind Dir Waves Ship Positions

Hercules J

Last reported at 2017-Nov-19 22:46 UTC. Time now 2017-Nov-22 05:44 UTC.
Position N 52°02' E 003°11'.

Length 151 m; draft 8.2 m.

Type: Ship (hazmat cat A). MMSI: 212302000.

Date/timePositionNaut miles runAvg speedWind from/ knotsBaromVisibWave heightAir tempDewpointWater temp
2017-Nov-19 22:46N 52°02' E 003°11'515.7
2017-Nov-19 22:26N 52°02' E 003°20'815.7
2017-Nov-19 21:56N 52°03' E 003°32'715.7
2017-Nov-19 21:31N 52°03' E 003°43'714.3
2017-Nov-19 21:00N 52°03' E 003°55'3 6.4
2017-Nov-19 20:30N 52°01' E 003°59'612.6
2017-Nov-19 20:00N 51°58' E 004°08'713.6
2017-Nov-19 19:30N 51°54' E 004°17'5 9.5
2017-Nov-19 19:00N 51°53' E 004°24'1 1.8
2017-Nov-19 18:28N 51°53' E 004°26'0 0.0
2017-Nov-19 18:00N 51°53' E 004°26'0 0.0
2017-Nov-19 17:30N 51°53' E 004°26'0 0.0
2017-Nov-19 17:00N 51°53' E 004°26'0 0.0
2017-Nov-19 16:30N 51°53' E 004°26'0 0.0
2017-Nov-19 15:59N 51°53' E 004°26'0 0.0
2017-Nov-19 15:29N 51°53' E 004°26'0 0.0
2017-Nov-19 15:00N 51°53' E 004°26'0 0.0
2017-Nov-19 14:30N 51°53' E 004°26'0 0.0
2017-Nov-19 14:00N 51°53' E 004°26'0 0.0
2017-Nov-19 13:30N 51°53' E 004°26'0 0.0
2017-Nov-19 13:00N 51°53' E 004°26'0 0.0
2017-Nov-19 12:30N 51°53' E 004°26'0 0.0
2017-Nov-19 12:00N 51°53' E 004°26'0 0.0
2017-Nov-19 11:30N 51°53' E 004°26'0 0.0
2017-Nov-19 11:00N 51°53' E 004°26'0 0.0
2017-Nov-19 10:30N 51°53' E 004°26'0 0.2
2017-Nov-19 10:00N 51°53' E 004°25'1 2.9
2017-Nov-19 09:30N 51°54' E 004°25'1 1.7
2017-Nov-19 09:00N 51°54' E 004°26'0 0.0
2017-Nov-19 08:30N 51°54' E 004°26'0 0.0
2017-Nov-19 08:00N 51°54' E 004°26'0 0.0
2017-Nov-19 07:30N 51°54' E 004°26'0 0.5
2017-Nov-19 07:01N 51°54' E 004°26'3 6.5
2017-Nov-19 06:30N 51°54' E 004°21'510.1
2017-Nov-19 06:00N 51°56' E 004°13'612.4
2017-Nov-19 05:30N 51°59' E 004°05'2 3.6
2017-Nov-19 05:01N 51°58' E 004°02'0 0.0
2017-Nov-19 04:29N 51°58' E 004°02'0 0.0
2017-Nov-19 03:59N 51°58' E 004°02'0 0.0
2017-Nov-19 03:29N 51°58' E 004°02'0 0.0
2017-Nov-19 02:58N 51°58' E 004°02'0 0.0
2017-Nov-19 02:28N 51°58' E 004°02'0 0.0
2017-Nov-19 01:58N 51°58' E 004°02'0 0.0
2017-Nov-19 01:28N 51°58' E 004°02'0 0.0
2017-Nov-19 00:58N 51°58' E 004°02'0 0.0
2017-Nov-19 00:30N 51°58' E 004°02'0 0.0
2017-Nov-19 00:00N 51°58' E 004°02'0 0.0
2017-Nov-18 23:27N 51°58' E 004°02'0 0.0
2017-Nov-18 23:00N 51°58' E 004°02'0 0.0
2017-Nov-18 22:26N 51°58' E 004°02'0 0.0
2017-Nov-18 21:59N 51°58' E 004°02'0 0.0
2017-Nov-18 21:29N 51°58' E 004°02'0 0.0
2017-Nov-18 20:59N 51°58' E 004°02'0 0.1
2017-Nov-18 20:29N 51°58' E 004°02'2 3.8
2017-Nov-18 20:00N 51°57' E 003°60'0 0.5
2017-Nov-18 19:28N 51°57' E 003°59'0 0.0
2017-Nov-18 18:58N 51°57' E 003°59'0 0.0
2017-Nov-18 18:28N 51°57' E 003°59'0 0.0
2017-Nov-18 17:58N 51°57' E 003°59'0 0.0
2017-Nov-18 17:28N 51°57' E 003°59'0 0.0
2017-Nov-18 17:00N 51°57' E 003°59'0 0.0
2017-Nov-18 16:27N 51°57' E 003°59'0 0.0
2017-Nov-18 16:00N 51°57' E 003°59'0 0.0
2017-Nov-18 15:30N 51°57' E 003°59'0 0.0
2017-Nov-18 14:59N 51°57' E 003°59'0 0.0
2017-Nov-18 14:29N 51°57' E 003°59'0 0.0
2017-Nov-18 13:59N 51°57' E 003°59'0 0.0
2017-Nov-18 13:29N 51°57' E 003°59'0 0.0
2017-Nov-18 12:59N 51°57' E 003°59'0 0.0
2017-Nov-18 12:28N 51°57' E 003°59'0 0.0
2017-Nov-18 11:58N 51°57' E 003°59'0 0.0
2017-Nov-18 11:28N 51°57' E 003°59'0 0.0
2017-Nov-18 10:58N 51°57' E 003°59'0 1.0
2017-Nov-18 10:30N 51°57' E 003°60'0 0.9
2017-Nov-18 10:00N 51°58' E 003°60'2 3.8
2017-Nov-18 09:30N 51°58' E 004°03'1 2.4
2017-Nov-18 08:59N 51°57' E 004°03'0 0.0
2017-Nov-18 08:29N 51°57' E 004°03'0 0.0
2017-Nov-18 07:59N 51°57' E 004°03'0 0.0
2017-Nov-18 07:28N 51°57' E 004°03'0 0.0
2017-Nov-18 06:58N 51°57' E 004°03'0 0.0
2017-Nov-18 06:28N 51°57' E 004°03'0 0.0
2017-Nov-18 05:58N 51°57' E 004°03'0 0.0
2017-Nov-18 05:30N 51°57' E 004°03'0 0.0
2017-Nov-18 05:00N 51°57' E 004°03'0 0.0
2017-Nov-18 04:30N 51°57' E 004°03'0 0.0
2017-Nov-18 04:00N 51°57' E 004°03'0 0.0
2017-Nov-18 03:30N 51°57' E 004°03'0 0.0
2017-Nov-18 02:59N 51°57' E 004°03'0 0.0
2017-Nov-18 02:29N 51°57' E 004°03'0 0.0
2017-Nov-18 01:59N 51°57' E 004°03'0 0.0
2017-Nov-18 01:29N 51°57' E 004°03'0 0.0
2017-Nov-18 00:59N 51°57' E 004°03'0 0.0
2017-Nov-18 00:28N 51°57' E 004°03'0 0.0
2017-Nov-17 23:58N 51°57' E 004°03'0 0.0
2017-Nov-17 23:28N 51°57' E 004°03'0 0.0
2017-Nov-17 22:55N 51°57' E 004°03'0 0.0
2017-Nov-17 22:30N 51°57' E 004°03'0 0.0
2017-Nov-17 22:00N 51°57' E 004°03'0 0.0
2017-Nov-17 21:30N 51°57' E 004°03'0 0.0
2017-Nov-17 21:00N 51°57' E 004°03'0 0.0
2017-Nov-17 20:30N 51°57' E 004°03'0 0.0
2017-Nov-17 19:56N 51°57' E 004°03'0 0.0
2017-Nov-17 19:29N 51°57' E 004°03'0 0.0
2017-Nov-17 18:59N 51°57' E 004°03'0 0.0
2017-Nov-17 18:29N 51°57' E 004°03'0 0.0
2017-Nov-17 17:59N 51°57' E 004°03'0 0.0
2017-Nov-17 17:30N 51°57' E 004°03'0 1.0
2017-Nov-17 17:00N 51°57' E 004°04'4 7.9
2017-Nov-17 16:30N 51°60' E 003°60'816.4
2017-Nov-17 16:00N 51°60' E 003°46'4 6.9
2017-Nov-17 15:30N 51°57' E 003°44'1 2.6
2017-Nov-17 15:00N 51°56' E 003°46'0 0.1
2017-Nov-17 14:30N 51°56' E 003°46'0 0.0
2017-Nov-17 14:00N 51°56' E 003°46'0 0.0
2017-Nov-17 13:30N 51°56' E 003°46'0 0.0
2017-Nov-17 12:44N 51°56' E 003°46'0 0.0
2017-Nov-17 12:26N 51°56' E 003°46'0 0.1
2017-Nov-17 11:23N 51°56' E 003°45'0 0.0
2017-Nov-17 10:59N 51°56' E 003°45'0 0.0
2017-Nov-17 10:22N 51°56' E 003°45'0 0.0
2017-Nov-17 09:58N 51°56' E 003°45'0 0.1
2017-Nov-17 09:19N 51°56' E 003°45'0 0.0
2017-Nov-17 08:34N 51°56' E 003°45'0 0.0
2017-Nov-17 08:12N 51°56' E 003°45'0 0.0
2017-Nov-17 07:54N 51°56' E 003°45'0 0.0
2017-Nov-17 07:24N 51°56' E 003°45'0 0.0
2017-Nov-17 06:54N 51°56' E 003°45'0 0.0
2017-Nov-17 06:24N 51°56' E 003°45'0 0.0
2017-Nov-17 05:53N 51°56' E 003°45'0 0.0
2017-Nov-17 05:11N 51°56' E 003°45'0 0.0
2017-Nov-17 04:47N 51°56' E 003°45'0 0.0
2017-Nov-17 04:23N 51°56' E 003°45'0 0.2
2017-Nov-17 03:56N 51°56' E 003°46'0 0.1
2017-Nov-17 03:19N 51°56' E 003°46'0 0.0
2017-Nov-17 02:58N 51°56' E 003°46'0 0.0
2017-Nov-17 02:25N 51°56' E 003°46'0 0.0
2017-Nov-17 01:58N 51°56' E 003°46'0 0.0
2017-Nov-17 01:18N 51°56' E 003°46'0 0.0
2017-Nov-17 01:00N 51°56' E 003°46'0 0.1
2017-Nov-17 00:18N 51°56' E 003°46'0 0.2
2017-Nov-16 23:11N 51°56' E 003°46'0 0.0
2017-Nov-16 20:50N 51°56' E 003°45'0 0.0
2017-Nov-16 20:13N 51°56' E 003°45'0 0.1
2017-Nov-16 17:06N 51°56' E 003°46'0 0.1
2017-Nov-16 17:00N 51°56' E 003°46'0 0.1
2017-Nov-16 16:26N 51°56' E 003°46'0 0.1
2017-Nov-16 15:44N 51°56' E 003°46'0 0.0
2017-Nov-16 15:20N 51°56' E 003°46'0 0.0
2017-Nov-16 14:59N 51°56' E 003°46'0 0.0
2017-Nov-16 14:26N 51°56' E 003°46'0 0.0
2017-Nov-16 13:43N 51°56' E 003°46'0 0.0
2017-Nov-16 13:28N 51°56' E 003°46'0 0.0
2017-Nov-16 12:40N 51°56' E 003°46'0 0.0
2017-Nov-16 12:16N 51°56' E 003°46'0 0.0
2017-Nov-16 11:58N 51°56' E 003°46'0 0.0
2017-Nov-16 11:30N 51°56' E 003°46'0 0.0
2017-Nov-16 10:57N 51°56' E 003°46'0 0.0
2017-Nov-16 10:30N 51°56' E 003°46'0 0.0
2017-Nov-16 09:51N 51°56' E 003°46'0 0.3
2017-Nov-16 09:27N 51°56' E 003°45'0 0.2
2017-Nov-16 08:56N 51°56' E 003°45'0 0.0
2017-Nov-16 08:14N 51°56' E 003°45'0 0.1
2017-Nov-16 07:59N 51°56' E 003°45'1 1.2
2017-Nov-16 07:30N 51°56' E 003°45'611.0
2017-Nov-16 06:59N 51°57' E 003°35'42 9.5
2017-Nov-16 02:33N 51°42' E 002°32'110.5
2017-Nov-16 02:30N 51°42' E 002°31'510.2
2017-Nov-16 02:00N 51°38' E 002°26'5 9.9
2017-Nov-16 01:30N 51°34' E 002°20'5 9.9
2017-Nov-16 00:58N 51°30' E 002°15'510.2
2017-Nov-16 00:30N 51°26' E 002°12'510.3
2017-Nov-16 00:00N 51°21' E 002°09'510.5
2017-Nov-15 23:30N 51°16' E 002°05'510.9
2017-Nov-15 23:00N 51°12' E 001°60'611.3
2017-Nov-15 22:30N 51°09' E 001°52'611.5
2017-Nov-15 22:00N 51°05' E 001°45'611.8
2017-Nov-15 21:29N 51°01' E 001°38'8310.4
2017-Nov-15 13:30N 49°56' E 000°17'5 9.1
2017-Nov-15 13:00N 49°52' E 000°12'5 9.1
2017-Nov-15 12:30N 49°49' E 000°08'5 9.3
2017-Nov-15 12:00N 49°45' E 000°04'5 9.9
2017-Nov-15 11:30N 49°41' E 000°00'510.4
2017-Nov-15 11:00N 49°35' W 000°01'612.0
2017-Nov-15 10:30N 49°30' E 000°02'5 9.8
2017-Nov-15 10:00N 49°28' E 000°09'0 0.1
2017-Nov-15 09:29N 49°28' E 000°09'0 0.0
2017-Nov-15 08:59N 49°28' E 000°09'0 0.0
2017-Nov-15 08:29N 49°28' E 000°09'0 0.0
2017-Nov-15 07:59N 49°28' E 000°09'0 0.0
2017-Nov-15 07:28N 49°28' E 000°09'0 0.0
2017-Nov-15 06:58N 49°28' E 000°09'0 0.0
2017-Nov-15 06:28N 49°28' E 000°09'0 0.0
2017-Nov-15 06:00N 49°28' E 000°09'2 4.0
2017-Nov-15 05:30N 49°29' E 000°06'714.8
2017-Nov-15 05:00N 49°31' W 000°05'4 9.0
2017-Nov-15 04:31N 49°33' W 000°11'510.1
2017-Nov-15 04:01N 49°35' W 000°18'510.9
2017-Nov-15 03:31N 49°37' W 000°26'510.6
2017-Nov-15 03:01N 49°39' W 000°34'510.7
2017-Nov-15 02:30N 49°41' W 000°41'511.0
2017-Nov-15 02:00N 49°43' W 000°49'510.9
2017-Nov-15 01:31N 49°45' W 000°57'510.8
2017-Nov-15 01:00N 49°47' W 001°04'611.4
2017-Nov-15 00:30N 49°49' W 001°13'510.9
2017-Nov-15 00:00N 49°51' W 001°21'510.8
2017-Nov-14 23:30N 49°51' W 001°29'510.6
2017-Nov-14 23:00N 49°51' W 001°37'510.5
2017-Nov-14 22:30N 49°52' W 001°46'510.3
2017-Nov-14 22:00N 49°52' W 001°54'510.9
2017-Nov-14 21:30N 49°52' W 002°02'510.4
2017-Nov-14 20:59N 49°53' W 002°10'4610.7
2017-Nov-14 16:41N 49°39' W 003°18'1312.3
2017-Nov-14 15:38N 49°32' W 003°35'1912.4
2017-Nov-14 14:07N 49°23' W 004°00'212.4
2017-Nov-14 13:57N 49°22' W 004°03'1012.4
2017-Nov-14 13:09N 49°17' W 004°16'312.4
2017-Nov-14 12:55N 49°15' W 004°20'7311.1
2017-Nov-14 06:20N 48°25' W 005°39'613.4
2017-Nov-14 05:53N 48°19' W 005°36'713.2
2017-Nov-14 05:22N 48°13' W 005°32'813.2
2017-Nov-14 04:45N 48°05' W 005°28'513.3
2017-Nov-14 04:24N 48°00' W 005°26'513.3
2017-Nov-14 04:00N 47°55' W 005°23'813.3
2017-Nov-14 03:24N 47°48' W 005°19'1213.3
2017-Nov-14 02:31N 47°37' W 005°13'713.5
2017-Nov-14 02:02N 47°31' W 005°10'213.8
2017-Nov-14 01:53N 47°29' W 005°09'713.8
2017-Nov-14 01:25N 47°23' W 005°05'913.8
2017-Nov-14 00:46N 47°14' W 005°02'1013.8
2017-Nov-14 00:04N 47°05' W 004°57'313.7
2017-Nov-13 23:50N 47°02' W 004°56'1613.8
2017-Nov-13 22:39N 46°47' W 004°47'21910.6
2017-Nov-13 02:00N 43°21' W 003°03'0 0.0
2017-Nov-13 01:30N 43°21' W 003°03'0 0.0
2017-Nov-13 00:59N 43°21' W 003°03'0 0.0
2017-Nov-13 00:29N 43°21' W 003°03'0 0.0
2017-Nov-12 23:59N 43°21' W 003°03'0 0.0
2017-Nov-12 23:29N 43°21' W 003°03'0 0.0
2017-Nov-12 22:58N 43°21' W 003°03'0 0.0
2017-Nov-12 22:28N 43°21' W 003°03'0 0.0
2017-Nov-12 21:58N 43°21' W 003°03'0 0.0
2017-Nov-12 21:28N 43°21' W 003°03'0 0.0
2017-Nov-12 20:58N 43°21' W 003°03'0 0.0
2017-Nov-12 20:27N 43°21' W 003°03'0 0.0
2017-Nov-12 19:57N 43°21' W 003°03'0 0.0
2017-Nov-12 19:27N 43°21' W 003°03'0 0.0
2017-Nov-12 19:00N 43°21' W 003°03'0 0.0
2017-Nov-12 18:29N 43°21' W 003°03'0 0.0
2017-Nov-12 17:59N 43°21' W 003°03'0 0.0
2017-Nov-12 17:29N 43°21' W 003°03'0 0.0
2017-Nov-12 16:59N 43°21' W 003°03'0 0.0
2017-Nov-12 16:29N 43°21' W 003°03'0 0.0
2017-Nov-12 15:58N 43°21' W 003°03'0 0.0
2017-Nov-12 15:28N 43°21' W 003°03'0 0.0
2017-Nov-12 14:58N 43°21' W 003°03'0 0.0
2017-Nov-12 14:25N 43°21' W 003°03'0 0.0
2017-Nov-12 13:57N 43°21' W 003°03'0 0.0
2017-Nov-12 13:30N 43°21' W 003°03'0 0.0
2017-Nov-12 13:00N 43°21' W 003°03'0 0.0
2017-Nov-12 12:30N 43°21' W 003°03'1 1.3
2017-Nov-12 12:00N 43°21' W 003°03'4 8.7
2017-Nov-12 11:30N 43°25' W 003°06'4 8.2
2017-Nov-12 11:01N 43°29' W 003°08'816.1
2017-Nov-12 10:31N 43°36' W 003°11'815.9
2017-Nov-12 10:01N 43°44' W 003°15'815.8
2017-Nov-12 09:30N 43°51' W 003°19'815.9
2017-Nov-12 09:00N 43°59' W 003°23'816.3
2017-Nov-12 08:30N 44°07' W 003°27'19616.2
2017-Nov-11 20:24N 47°09' W 005°06'5215.7
2017-Nov-11 17:05N 47°58' W 005°34'215.6
2017-Nov-11 16:57N 48°00' W 005°35'715.9
2017-Nov-11 16:30N 48°07' W 005°39'816.2
2017-Nov-11 16:00N 48°14' W 005°43'916.3
2017-Nov-11 15:27N 48°23' W 005°47'11811.7
2017-Nov-11 05:23N 49°45' W 003°38'813.6
2017-Nov-11 04:45N 49°49' W 003°26'413.6
2017-Nov-11 04:30N 49°50' W 003°21'714.0
2017-Nov-11 03:58N 49°54' W 003°11'713.9
2017-Nov-11 03:27N 49°58' W 003°01'613.8
2017-Nov-11 03:00N 49°60' W 002°52'713.6
2017-Nov-11 02:30N 50°02' W 002°42'3612.7
2017-Nov-10 23:40N 50°11' W 001°48'213.6
2017-Nov-10 23:30N 50°12' W 001°45'714.2
2017-Nov-10 23:01N 50°13' W 001°34'4416.1
2017-Nov-10 20:15N 50°25' W 000°27'417.0
2017-Nov-10 20:00N 50°26' W 000°21'916.9
2017-Nov-10 19:30N 50°28' W 000°08'816.7
2017-Nov-10 19:00N 50°31' E 000°04'816.6
2017-Nov-10 18:30N 50°33' E 000°17'816.7
2017-Nov-10 18:00N 50°35' E 000°30'816.1
2017-Nov-10 17:30N 50°39' E 000°41'815.9
2017-Nov-10 17:01N 50°43' E 000°52'815.4
2017-Nov-10 16:30N 50°47' E 001°02'715.0
2017-Nov-10 16:00N 50°51' E 001°12'1314.5
2017-Nov-10 15:08N 51°00' E 001°26'215.3
2017-Nov-10 15:00N 51°02' E 001°28'815.6
2017-Nov-10 14:31N 51°07' E 001°37'816.1
2017-Nov-10 14:01N 51°13' E 001°45'917.1
2017-Nov-10 13:31N 51°20' E 001°53'917.2
2017-Nov-10 13:00N 51°27' E 002°01'917.3
2017-Nov-10 12:30N 51°34' E 002°10'1017.1
2017-Nov-10 11:54N 51°41' E 002°21'1116.6
2017-Nov-10 11:16N 51°49' E 002°34'416.3
2017-Nov-10 11:00N 51°52' E 002°39'1515.1
2017-Nov-10 10:00N 51°60' E 002°60'1914.6
2017-Nov-10 08:40N 52°03' E 003°31'214.7
2017-Nov-10 08:30N 52°03' E 003°35'714.7
2017-Nov-10 08:00N 52°03' E 003°47'611.1
2017-Nov-10 07:30N 52°02' E 003°56'713.4
2017-Nov-10 07:00N 51°59' E 004°05'2 4.0
2017-Nov-10 06:30N 51°57' E 004°05'0 0.0
2017-Nov-10 05:59N 51°57' E 004°05'0 0.0
2017-Nov-10 05:29N 51°57' E 004°05'0 0.0
2017-Nov-10 04:59N 51°57' E 004°05'0 0.0
2017-Nov-10 04:29N 51°57' E 004°05'0 0.0
2017-Nov-10 03:58N 51°57' E 004°05'0 0.0
2017-Nov-10 03:28N 51°57' E 004°05'0 0.0
2017-Nov-10 02:46N 51°57' E 004°05'0 0.0
2017-Nov-10 02:28N 51°57' E 004°05'0 0.0
2017-Nov-10 01:58N 51°57' E 004°05'0 0.0
2017-Nov-10 01:27N 51°57' E 004°05'0 0.0
2017-Nov-10 00:57N 51°57' E 004°05'0 0.0
2017-Nov-10 00:30N 51°57' E 004°05'0 0.0
2017-Nov-10 00:00N 51°57' E 004°05'0 0.2
2017-Nov-09 23:30N 51°57' E 004°05'2 4.6
2017-Nov-09 23:00N 51°58' E 004°02'  
Track history (hours):
 
Tides and Currents Weather Stations Pressure Air Temp Water Temp Dewpoint Dewpoint Depression Visibility Wind Speed Wind Dir Waves Ship Positions

Hercules J

Last reported at 2017-Nov-19 22:46 UTC. Time now 2017-Nov-22 05:44 UTC.
Position N 52°02' E 003°11'.

Length 151 m; draft 8.2 m.

Type: Ship (hazmat cat A). MMSI: 212302000.

Date/timePositionNaut miles runAvg speedWind from/ knotsBaromVisibWave heightAir tempDewpointWater temp
2017-Nov-19 22:46N 52°02' E 003°11'515.7
2017-Nov-19 22:26N 52°02' E 003°20'815.7
2017-Nov-19 21:56N 52°03' E 003°32'715.7
2017-Nov-19 21:31N 52°03' E 003°43'714.3
2017-Nov-19 21:00N 52°03' E 003°55'3 6.4
2017-Nov-19 20:30N 52°01' E 003°59'612.6
2017-Nov-19 20:00N 51°58' E 004°08'713.6
2017-Nov-19 19:30N 51°54' E 004°17'5 9.5
2017-Nov-19 19:00N 51°53' E 004°24'1 1.8
2017-Nov-19 18:28N 51°53' E 004°26'0 0.0
2017-Nov-19 18:00N 51°53' E 004°26'0 0.0
2017-Nov-19 17:30N 51°53' E 004°26'0 0.0
2017-Nov-19 17:00N 51°53' E 004°26'0 0.0
2017-Nov-19 16:30N 51°53' E 004°26'0 0.0
2017-Nov-19 15:59N 51°53' E 004°26'0 0.0
2017-Nov-19 15:29N 51°53' E 004°26'0 0.0
2017-Nov-19 15:00N 51°53' E 004°26'0 0.0
2017-Nov-19 14:30N 51°53' E 004°26'0 0.0
2017-Nov-19 14:00N 51°53' E 004°26'0 0.0
2017-Nov-19 13:30N 51°53' E 004°26'0 0.0
2017-Nov-19 13:00N 51°53' E 004°26'0 0.0
2017-Nov-19 12:30N 51°53' E 004°26'0 0.0
2017-Nov-19 12:00N 51°53' E 004°26'0 0.0
2017-Nov-19 11:30N 51°53' E 004°26'0 0.0
2017-Nov-19 11:00N 51°53' E 004°26'0 0.0
2017-Nov-19 10:30N 51°53' E 004°26'0 0.2
2017-Nov-19 10:00N 51°53' E 004°25'1 2.9
2017-Nov-19 09:30N 51°54' E 004°25'1 1.7
2017-Nov-19 09:00N 51°54' E 004°26'0 0.0
2017-Nov-19 08:30N 51°54' E 004°26'0 0.0
2017-Nov-19 08:00N 51°54' E 004°26'0 0.0
2017-Nov-19 07:30N 51°54' E 004°26'0 0.5
2017-Nov-19 07:01N 51°54' E 004°26'3 6.5
2017-Nov-19 06:30N 51°54' E 004°21'510.1
2017-Nov-19 06:00N 51°56' E 004°13'612.4
2017-Nov-19 05:30N 51°59' E 004°05'2 3.6
2017-Nov-19 05:01N 51°58' E 004°02'0 0.0
2017-Nov-19 04:29N 51°58' E 004°02'0 0.0
2017-Nov-19 03:59N 51°58' E 004°02'0 0.0
2017-Nov-19 03:29N 51°58' E 004°02'0 0.0
2017-Nov-19 02:58N 51°58' E 004°02'0 0.0
2017-Nov-19 02:28N 51°58' E 004°02'0 0.0
2017-Nov-19 01:58N 51°58' E 004°02'0 0.0
2017-Nov-19 01:28N 51°58' E 004°02'0 0.0
2017-Nov-19 00:58N 51°58' E 004°02'0 0.0
2017-Nov-19 00:30N 51°58' E 004°02'0 0.0
2017-Nov-19 00:00N 51°58' E 004°02'0 0.0
2017-Nov-18 23:27N 51°58' E 004°02'0 0.0
2017-Nov-18 23:00N 51°58' E 004°02'0 0.0
2017-Nov-18 22:26N 51°58' E 004°02'0 0.0
2017-Nov-18 21:59N 51°58' E 004°02'0 0.0
2017-Nov-18 21:29N 51°58' E 004°02'0 0.0
2017-Nov-18 20:59N 51°58' E 004°02'0 0.1
2017-Nov-18 20:29N 51°58' E 004°02'2 3.8
2017-Nov-18 20:00N 51°57' E 003°60'0 0.5
2017-Nov-18 19:28N 51°57' E 003°59'0 0.0
2017-Nov-18 18:58N 51°57' E 003°59'0 0.0
2017-Nov-18 18:28N 51°57' E 003°59'0 0.0
2017-Nov-18 17:58N 51°57' E 003°59'0 0.0
2017-Nov-18 17:28N 51°57' E 003°59'0 0.0
2017-Nov-18 17:00N 51°57' E 003°59'0 0.0
2017-Nov-18 16:27N 51°57' E 003°59'0 0.0
2017-Nov-18 16:00N 51°57' E 003°59'0 0.0
2017-Nov-18 15:30N 51°57' E 003°59'0 0.0
2017-Nov-18 14:59N 51°57' E 003°59'0 0.0
2017-Nov-18 14:29N 51°57' E 003°59'0 0.0
2017-Nov-18 13:59N 51°57' E 003°59'0 0.0
2017-Nov-18 13:29N 51°57' E 003°59'0 0.0
2017-Nov-18 12:59N 51°57' E 003°59'0 0.0
2017-Nov-18 12:28N 51°57' E 003°59'0 0.0
2017-Nov-18 11:58N 51°57' E 003°59'0 0.0
2017-Nov-18 11:28N 51°57' E 003°59'0 0.0
2017-Nov-18 10:58N 51°57' E 003°59'0 1.0
2017-Nov-18 10:30N 51°57' E 003°60'0 0.9
2017-Nov-18 10:00N 51°58' E 003°60'2 3.8
2017-Nov-18 09:30N 51°58' E 004°03'1 2.4
2017-Nov-18 08:59N 51°57' E 004°03'0 0.0
2017-Nov-18 08:29N 51°57' E 004°03'0 0.0
2017-Nov-18 07:59N 51°57' E 004°03'0 0.0
2017-Nov-18 07:28N 51°57' E 004°03'0 0.0
2017-Nov-18 06:58N 51°57' E 004°03'0 0.0
2017-Nov-18 06:28N 51°57' E 004°03'0 0.0
2017-Nov-18 05:58N 51°57' E 004°03'0 0.0
2017-Nov-18 05:30N 51°57' E 004°03'0 0.0
2017-Nov-18 05:00N 51°57' E 004°03'0 0.0
2017-Nov-18 04:30N 51°57' E 004°03'0 0.0
2017-Nov-18 04:00N 51°57' E 004°03'0 0.0
2017-Nov-18 03:30N 51°57' E 004°03'0 0.0
2017-Nov-18 02:59N 51°57' E 004°03'0 0.0
2017-Nov-18 02:29N 51°57' E 004°03'0 0.0
2017-Nov-18 01:59N 51°57' E 004°03'0 0.0
2017-Nov-18 01:29N 51°57' E 004°03'0 0.0
2017-Nov-18 00:59N 51°57' E 004°03'0 0.0
2017-Nov-18 00:28N 51°57' E 004°03'0 0.0
2017-Nov-17 23:58N 51°57' E 004°03'0 0.0
2017-Nov-17 23:28N 51°57' E 004°03'0 0.0
2017-Nov-17 22:55N 51°57' E 004°03'0 0.0
2017-Nov-17 22:30N 51°57' E 004°03'0 0.0
2017-Nov-17 22:00N 51°57' E 004°03'0 0.0
2017-Nov-17 21:30N 51°57' E 004°03'0 0.0
2017-Nov-17 21:00N 51°57' E 004°03'0 0.0
2017-Nov-17 20:30N 51°57' E 004°03'0 0.0
2017-Nov-17 19:56N 51°57' E 004°03'0 0.0
2017-Nov-17 19:29N 51°57' E 004°03'0 0.0
2017-Nov-17 18:59N 51°57' E 004°03'0 0.0
2017-Nov-17 18:29N 51°57' E 004°03'0 0.0
2017-Nov-17 17:59N 51°57' E 004°03'0 0.0
2017-Nov-17 17:30N 51°57' E 004°03'0 1.0
2017-Nov-17 17:00N 51°57' E 004°04'4 7.9
2017-Nov-17 16:30N 51°60' E 003°60'816.4
2017-Nov-17 16:00N 51°60' E 003°46'4 6.9
2017-Nov-17 15:30N 51°57' E 003°44'1 2.6
2017-Nov-17 15:00N 51°56' E 003°46'0 0.1
2017-Nov-17 14:30N 51°56' E 003°46'0 0.0
2017-Nov-17 14:00N 51°56' E 003°46'0 0.0
2017-Nov-17 13:30N 51°56' E 003°46'0 0.0
2017-Nov-17 12:44N 51°56' E 003°46'0 0.0
2017-Nov-17 12:26N 51°56' E 003°46'0 0.1
2017-Nov-17 11:23N 51°56' E 003°45'0 0.0
2017-Nov-17 10:59N 51°56' E 003°45'0 0.0
2017-Nov-17 10:22N 51°56' E 003°45'0 0.0
2017-Nov-17 09:58N 51°56' E 003°45'0 0.1
2017-Nov-17 09:19N 51°56' E 003°45'0 0.0
2017-Nov-17 08:34N 51°56' E 003°45'0 0.0
2017-Nov-17 08:12N 51°56' E 003°45'0 0.0
2017-Nov-17 07:54N 51°56' E 003°45'0 0.0
2017-Nov-17 07:24N 51°56' E 003°45'0 0.0
2017-Nov-17 06:54N 51°56' E 003°45'0 0.0
2017-Nov-17 06:24N 51°56' E 003°45'0 0.0
2017-Nov-17 05:53N 51°56' E 003°45'0 0.0
2017-Nov-17 05:11N 51°56' E 003°45'0 0.0
2017-Nov-17 04:47N 51°56' E 003°45'0 0.0
2017-Nov-17 04:23N 51°56' E 003°45'0 0.2
2017-Nov-17 03:56N 51°56' E 003°46'0 0.1
2017-Nov-17 03:19N 51°56' E 003°46'0 0.0
2017-Nov-17 02:58N 51°56' E 003°46'0 0.0
2017-Nov-17 02:25N 51°56' E 003°46'0 0.0
2017-Nov-17 01:58N 51°56' E 003°46'0 0.0
2017-Nov-17 01:18N 51°56' E 003°46'0 0.0
2017-Nov-17 01:00N 51°56' E 003°46'0 0.1
2017-Nov-17 00:18N 51°56' E 003°46'0 0.2
2017-Nov-16 23:11N 51°56' E 003°46'0 0.0
2017-Nov-16 20:50N 51°56' E 003°45'0 0.0
2017-Nov-16 20:13N 51°56' E 003°45'0 0.1
2017-Nov-16 17:06N 51°56' E 003°46'0 0.1
2017-Nov-16 17:00N 51°56' E 003°46'0 0.1
2017-Nov-16 16:26N 51°56' E 003°46'0 0.1
2017-Nov-16 15:44N 51°56' E 003°46'0 0.0
2017-Nov-16 15:20N 51°56' E 003°46'0 0.0
2017-Nov-16 14:59N 51°56' E 003°46'0 0.0
2017-Nov-16 14:26N 51°56' E 003°46'0 0.0
2017-Nov-16 13:43N 51°56' E 003°46'0 0.0
2017-Nov-16 13:28N 51°56' E 003°46'0 0.0
2017-Nov-16 12:40N 51°56' E 003°46'0 0.0
2017-Nov-16 12:16N 51°56' E 003°46'0 0.0
2017-Nov-16 11:58N 51°56' E 003°46'0 0.0
2017-Nov-16 11:30N 51°56' E 003°46'0 0.0
2017-Nov-16 10:57N 51°56' E 003°46'0 0.0
2017-Nov-16 10:30N 51°56' E 003°46'0 0.0
2017-Nov-16 09:51N 51°56' E 003°46'0 0.3
2017-Nov-16 09:27N 51°56' E 003°45'0 0.2
2017-Nov-16 08:56N 51°56' E 003°45'0 0.0
2017-Nov-16 08:14N 51°56' E 003°45'0 0.1
2017-Nov-16 07:59N 51°56' E 003°45'1 1.2
2017-Nov-16 07:30N 51°56' E 003°45'611.0
2017-Nov-16 06:59N 51°57' E 003°35'42 9.5
2017-Nov-16 02:33N 51°42' E 002°32'110.5
2017-Nov-16 02:30N 51°42' E 002°31'510.2
2017-Nov-16 02:00N 51°38' E 002°26'5 9.9
2017-Nov-16 01:30N 51°34' E 002°20'5 9.9
2017-Nov-16 00:58N 51°30' E 002°15'510.2
2017-Nov-16 00:30N 51°26' E 002°12'510.3
2017-Nov-16 00:00N 51°21' E 002°09'510.5
2017-Nov-15 23:30N 51°16' E 002°05'510.9
2017-Nov-15 23:00N 51°12' E 001°60'611.3
2017-Nov-15 22:30N 51°09' E 001°52'611.5
2017-Nov-15 22:00N 51°05' E 001°45'611.8
2017-Nov-15 21:29N 51°01' E 001°38'8310.4
2017-Nov-15 13:30N 49°56' E 000°17'5 9.1
2017-Nov-15 13:00N 49°52' E 000°12'5 9.1
2017-Nov-15 12:30N 49°49' E 000°08'5 9.3
2017-Nov-15 12:00N 49°45' E 000°04'5 9.9
2017-Nov-15 11:30N 49°41' E 000°00'510.4
2017-Nov-15 11:00N 49°35' W 000°01'612.0
2017-Nov-15 10:30N 49°30' E 000°02'5 9.8
2017-Nov-15 10:00N 49°28' E 000°09'0 0.1
2017-Nov-15 09:29N 49°28' E 000°09'0 0.0
2017-Nov-15 08:59N 49°28' E 000°09'0 0.0
2017-Nov-15 08:29N 49°28' E 000°09'0 0.0
2017-Nov-15 07:59N 49°28' E 000°09'0 0.0
2017-Nov-15 07:28N 49°28' E 000°09'0 0.0
2017-Nov-15 06:58N 49°28' E 000°09'0 0.0
2017-Nov-15 06:28N 49°28' E 000°09'0 0.0
2017-Nov-15 06:00N 49°28' E 000°09'2 4.0
2017-Nov-15 05:30N 49°29' E 000°06'714.8
2017-Nov-15 05:00N 49°31' W 000°05'4 9.0
2017-Nov-15 04:31N 49°33' W 000°11'510.1
2017-Nov-15 04:01N 49°35' W 000°18'510.9
2017-Nov-15 03:31N 49°37' W 000°26'510.6
2017-Nov-15 03:01N 49°39' W 000°34'510.7
2017-Nov-15 02:30N 49°41' W 000°41'511.0
2017-Nov-15 02:00N 49°43' W 000°49'510.9
2017-Nov-15 01:31N 49°45' W 000°57'510.8
2017-Nov-15 01:00N 49°47' W 001°04'611.4
2017-Nov-15 00:30N 49°49' W 001°13'510.9
2017-Nov-15 00:00N 49°51' W 001°21'510.8
2017-Nov-14 23:30N 49°51' W 001°29'510.6
2017-Nov-14 23:00N 49°51' W 001°37'510.5
2017-Nov-14 22:30N 49°52' W 001°46'510.3
2017-Nov-14 22:00N 49°52' W 001°54'510.9
2017-Nov-14 21:30N 49°52' W 002°02'510.4
2017-Nov-14 20:59N 49°53' W 002°10'4610.7
2017-Nov-14 16:41N 49°39' W 003°18'1312.3
2017-Nov-14 15:38N 49°32' W 003°35'1912.4
2017-Nov-14 14:07N 49°23' W 004°00'212.4
2017-Nov-14 13:57N 49°22' W 004°03'1012.4
2017-Nov-14 13:09N 49°17' W 004°16'312.4
2017-Nov-14 12:55N 49°15' W 004°20'7311.1
2017-Nov-14 06:20N 48°25' W 005°39'613.4
2017-Nov-14 05:53N 48°19' W 005°36'713.2
2017-Nov-14 05:22N 48°13' W 005°32'813.2
2017-Nov-14 04:45N 48°05' W 005°28'513.3
2017-Nov-14 04:24N 48°00' W 005°26'513.3
2017-Nov-14 04:00N 47°55' W 005°23'813.3
2017-Nov-14 03:24N 47°48' W 005°19'1213.3
2017-Nov-14 02:31N 47°37' W 005°13'713.5
2017-Nov-14 02:02N 47°31' W 005°10'213.8
2017-Nov-14 01:53N 47°29' W 005°09'713.8
2017-Nov-14 01:25N 47°23' W 005°05'913.8
2017-Nov-14 00:46N 47°14' W 005°02'1013.8
2017-Nov-14 00:04N 47°05' W 004°57'313.7
2017-Nov-13 23:50N 47°02' W 004°56'1613.8
2017-Nov-13 22:39N 46°47' W 004°47'21910.6
2017-Nov-13 02:00N 43°21' W 003°03'0 0.0
2017-Nov-13 01:30N 43°21' W 003°03'0 0.0
2017-Nov-13 00:59N 43°21' W 003°03'0 0.0
2017-Nov-13 00:29N 43°21' W 003°03'0 0.0
2017-Nov-12 23:59N 43°21' W 003°03'0 0.0
2017-Nov-12 23:29N 43°21' W 003°03'0 0.0
2017-Nov-12 22:58N 43°21' W 003°03'0 0.0
2017-Nov-12 22:28N 43°21' W 003°03'0 0.0
2017-Nov-12 21:58N 43°21' W 003°03'0 0.0
2017-Nov-12 21:28N 43°21' W 003°03'0 0.0
2017-Nov-12 20:58N 43°21' W 003°03'0 0.0
2017-Nov-12 20:27N 43°21' W 003°03'0 0.0
2017-Nov-12 19:57N 43°21' W 003°03'0 0.0
2017-Nov-12 19:27N 43°21' W 003°03'0 0.0
2017-Nov-12 19:00N 43°21' W 003°03'0 0.0
2017-Nov-12 18:29N 43°21' W 003°03'0 0.0
2017-Nov-12 17:59N 43°21' W 003°03'0 0.0
2017-Nov-12 17:29N 43°21' W 003°03'0 0.0
2017-Nov-12 16:59N 43°21' W 003°03'0 0.0
2017-Nov-12 16:29N 43°21' W 003°03'0 0.0
2017-Nov-12 15:58N 43°21' W 003°03'0 0.0
2017-Nov-12 15:28N 43°21' W 003°03'0 0.0
2017-Nov-12 14:58N 43°21' W 003°03'0 0.0
2017-Nov-12 14:25N 43°21' W 003°03'0 0.0
2017-Nov-12 13:57N 43°21' W 003°03'0 0.0
2017-Nov-12 13:30N 43°21' W 003°03'0 0.0
2017-Nov-12 13:00N 43°21' W 003°03'0 0.0
2017-Nov-12 12:30N 43°21' W 003°03'1 1.3
2017-Nov-12 12:00N 43°21' W 003°03'4 8.7
2017-Nov-12 11:30N 43°25' W 003°06'4 8.2
2017-Nov-12 11:01N 43°29' W 003°08'816.1
2017-Nov-12 10:31N 43°36' W 003°11'815.9
2017-Nov-12 10:01N 43°44' W 003°15'815.8
2017-Nov-12 09:30N 43°51' W 003°19'815.9
2017-Nov-12 09:00N 43°59' W 003°23'816.3
2017-Nov-12 08:30N 44°07' W 003°27'19616.2
2017-Nov-11 20:24N 47°09' W 005°06'5215.7
2017-Nov-11 17:05N 47°58' W 005°34'215.6
2017-Nov-11 16:57N 48°00' W 005°35'715.9
2017-Nov-11 16:30N 48°07' W 005°39'816.2
2017-Nov-11 16:00N 48°14' W 005°43'916.3
2017-Nov-11 15:27N 48°23' W 005°47'11811.7
2017-Nov-11 05:23N 49°45' W 003°38'813.6
2017-Nov-11 04:45N 49°49' W 003°26'413.6
2017-Nov-11 04:30N 49°50' W 003°21'714.0
2017-Nov-11 03:58N 49°54' W 003°11'713.9
2017-Nov-11 03:27N 49°58' W 003°01'613.8
2017-Nov-11 03:00N 49°60' W 002°52'713.6
2017-Nov-11 02:30N 50°02' W 002°42'3612.7
2017-Nov-10 23:40N 50°11' W 001°48'213.6
2017-Nov-10 23:30N 50°12' W 001°45'714.2
2017-Nov-10 23:01N 50°13' W 001°34'4416.1
2017-Nov-10 20:15N 50°25' W 000°27'417.0
2017-Nov-10 20:00N 50°26' W 000°21'916.9
2017-Nov-10 19:30N 50°28' W 000°08'816.7
2017-Nov-10 19:00N 50°31' E 000°04'816.6
2017-Nov-10 18:30N 50°33' E 000°17'816.7
2017-Nov-10 18:00N 50°35' E 000°30'816.1
2017-Nov-10 17:30N 50°39' E 000°41'815.9
2017-Nov-10 17:01N 50°43' E 000°52'815.4
2017-Nov-10 16:30N 50°47' E 001°02'715.0
2017-Nov-10 16:00N 50°51' E 001°12'1314.5
2017-Nov-10 15:08N 51°00' E 001°26'215.3
2017-Nov-10 15:00N 51°02' E 001°28'815.6
2017-Nov-10 14:31N 51°07' E 001°37'816.1
2017-Nov-10 14:01N 51°13' E 001°45'917.1
2017-Nov-10 13:31N 51°20' E 001°53'917.2
2017-Nov-10 13:00N 51°27' E 002°01'917.3
2017-Nov-10 12:30N 51°34' E 002°10'1017.1
2017-Nov-10 11:54N 51°41' E 002°21'1116.6
2017-Nov-10 11:16N 51°49' E 002°34'416.3
2017-Nov-10 11:00N 51°52' E 002°39'1515.1
2017-Nov-10 10:00N 51°60' E 002°60'1914.6
2017-Nov-10 08:40N 52°03' E 003°31'214.7
2017-Nov-10 08:30N 52°03' E 003°35'714.7
2017-Nov-10 08:00N 52°03' E 003°47'611.1
2017-Nov-10 07:30N 52°02' E 003°56'713.4
2017-Nov-10 07:00N 51°59' E 004°05'2 4.0
2017-Nov-10 06:30N 51°57' E 004°05'0 0.0
2017-Nov-10 05:59N 51°57' E 004°05'0 0.0
2017-Nov-10 05:29N 51°57' E 004°05'0 0.0
2017-Nov-10 04:59N 51°57' E 004°05'0 0.0
2017-Nov-10 04:29N 51°57' E 004°05'0 0.0
2017-Nov-10 03:58N 51°57' E 004°05'0 0.0
2017-Nov-10 03:28N 51°57' E 004°05'0 0.0
2017-Nov-10 02:46N 51°57' E 004°05'0 0.0
2017-Nov-10 02:28N 51°57' E 004°05'0 0.0
2017-Nov-10 01:58N 51°57' E 004°05'0 0.0
2017-Nov-10 01:27N 51°57' E 004°05'0 0.0
2017-Nov-10 00:57N 51°57' E 004°05'0 0.0
2017-Nov-10 00:30N 51°57' E 004°05'0 0.0
2017-Nov-10 00:00N 51°57' E 004°05'0 0.2
2017-Nov-09 23:30N 51°57' E 004°05'2 4.6
2017-Nov-09 23:00N 51°58' E 004°02'  

Dump ship's entire track history